sensor_id;sensor_type;location;lat;lon;timestamp;P1;durP1;ratioP1;P2;durP2;ratioP2
6547;SDS011;3307;52.416;16.862;2023-04-01T00:01:56;7.37;;;6.00;;
6547;SDS011;3307;52.416;16.862;2023-04-01T00:04:22;7.50;;;6.80;;
6547;SDS011;3307;52.416;16.862;2023-04-01T00:06:47;11.87;;;7.27;;
6547;SDS011;3307;52.416;16.862;2023-04-01T00:09:13;8.03;;;7.33;;
6547;SDS011;3307;52.416;16.862;2023-04-01T00:11:39;7.90;;;7.20;;
6547;SDS011;3307;52.416;16.862;2023-04-01T00:14:05;7.70;;;7.00;;
6547;SDS011;3307;52.416;16.862;2023-04-01T00:16:32;8.07;;;7.28;;
6547;SDS011;3307;52.416;16.862;2023-04-01T00:18:57;8.47;;;7.60;;
6547;SDS011;3307;52.416;16.862;2023-04-01T00:21:23;8.13;;;6.80;;
6547;SDS011;3307;52.416;16.862;2023-04-01T00:23:51;8.07;;;7.10;;
6547;SDS011;3307;52.416;16.862;2023-04-01T00:26:17;8.45;;;7.15;;
6547;SDS011;3307;52.416;16.862;2023-04-01T00:28:45;7.30;;;6.60;;
6547;SDS011;3307;52.416;16.862;2023-04-01T00:31:11;6.60;;;5.90;;
6547;SDS011;3307;52.416;16.862;2023-04-01T00:33:37;7.20;;;6.50;;
6547;SDS011;3307;52.416;16.862;2023-04-01T00:36:10;8.73;;;6.97;;
6547;SDS011;3307;52.416;16.862;2023-04-01T00:38:36;8.27;;;7.38;;
6547;SDS011;3307;52.416;16.862;2023-04-01T00:41:02;9.53;;;8.23;;
6547;SDS011;3307;52.416;16.862;2023-04-01T00:43:28;9.30;;;8.30;;
6547;SDS011;3307;52.416;16.862;2023-04-01T00:45:53;7.13;;;6.53;;
6547;SDS011;3307;52.416;16.862;2023-04-01T00:48:20;9.03;;;8.13;;
6547;SDS011;3307;52.416;16.862;2023-04-01T00:50:49;9.90;;;8.90;;
6547;SDS011;3307;52.416;16.862;2023-04-01T00:53:17;8.68;;;7.72;;
6547;SDS011;3307;52.416;16.862;2023-04-01T00:55:47;10.80;;;9.10;;
6547;SDS011;3307;52.416;16.862;2023-04-01T00:58:16;9.70;;;8.80;;
6547;SDS011;3307;52.416;16.862;2023-04-01T01:00:42;9.25;;;8.35;;
6547;SDS011;3307;52.416;16.862;2023-04-01T01:03:08;11.40;;;9.47;;
6547;SDS011;3307;52.416;16.862;2023-04-01T01:11:03;10.82;;;9.75;;
6547;SDS011;3307;52.416;16.862;2023-04-01T01:13:34;11.93;;;10.68;;
6547;SDS011;3307;52.416;16.862;2023-04-01T01:16:04;12.05;;;10.70;;
6547;SDS011;3307;52.416;16.862;2023-04-01T01:31:45;16.10;;;14.30;;
6547;SDS011;3307;52.416;16.862;2023-04-01T01:36:54;22.67;;;19.07;;
6547;SDS011;3307;52.416;16.862;2023-04-01T01:39:23;21.40;;;18.45;;
6547;SDS011;3307;52.416;16.862;2023-04-01T01:41:53;19.25;;;17.13;;
6547;SDS011;3307;52.416;16.862;2023-04-01T01:44:24;19.50;;;17.40;;
6547;SDS011;3307;52.416;16.862;2023-04-01T01:46:51;19.48;;;17.15;;
6547;SDS011;3307;52.416;16.862;2023-04-01T01:49:17;22.50;;;17.13;;
6547;SDS011;3307;52.416;16.862;2023-04-01T01:51:43;18.80;;;16.80;;
6547;SDS011;3307;52.416;16.862;2023-04-01T01:54:12;19.23;;;17.23;;
6547;SDS011;3307;52.416;16.862;2023-04-01T01:56:39;19.10;;;16.98;;
6547;SDS011;3307;52.416;16.862;2023-04-01T01:59:08;18.80;;;16.30;;
6547;SDS011;3307;52.416;16.862;2023-04-01T02:01:36;20.00;;;16.50;;
6547;SDS011;3307;52.416;16.862;2023-04-01T02:04:05;17.02;;;15.15;;
6547;SDS011;3307;52.416;16.862;2023-04-01T02:06:32;16.43;;;14.63;;
6547;SDS011;3307;52.416;16.862;2023-04-01T02:09:00;17.50;;;15.63;;
6547;SDS011;3307;52.416;16.862;2023-04-01T02:14:07;16.90;;;14.85;;
6547;SDS011;3307;52.416;16.862;2023-04-01T02:16:49;17.42;;;15.63;;
6547;SDS011;3307;52.416;16.862;2023-04-01T02:19:17;19.92;;;17.73;;
6547;SDS011;3307;52.416;16.862;2023-04-01T02:21:49;21.38;;;16.52;;
6547;SDS011;3307;52.416;16.862;2023-04-01T02:24:17;21.42;;;17.45;;
6547;SDS011;3307;52.416;16.862;2023-04-01T02:26:43;19.10;;;16.90;;
6547;SDS011;3307;52.416;16.862;2023-04-01T02:29:09;17.60;;;15.35;;
6547;SDS011;3307;52.416;16.862;2023-04-01T02:31:36;21.85;;;17.55;;
6547;SDS011;3307;52.416;16.862;2023-04-01T02:34:01;23.07;;;17.57;;
6547;SDS011;3307;52.416;16.862;2023-04-01T02:36:28;21.33;;;18.70;;
6547;SDS011;3307;52.416;16.862;2023-04-01T02:38:53;19.97;;;17.90;;
6547;SDS011;3307;52.416;16.862;2023-04-01T02:41:19;19.27;;;16.95;;
6547;SDS011;3307;52.416;16.862;2023-04-01T02:43:46;19.67;;;16.38;;
6547;SDS011;3307;52.416;16.862;2023-04-01T02:46:11;16.63;;;14.87;;
6547;SDS011;3307;52.416;16.862;2023-04-01T02:48:36;21.90;;;17.70;;
6547;SDS011;3307;52.416;16.862;2023-04-01T02:51:02;18.10;;;15.37;;
6547;SDS011;3307;52.416;16.862;2023-04-01T02:53:27;18.43;;;16.43;;
6547;SDS011;3307;52.416;16.862;2023-04-01T02:55:53;17.80;;;14.93;;
6547;SDS011;3307;52.416;16.862;2023-04-01T02:58:18;16.10;;;14.40;;
6547;SDS011;3307;52.416;16.862;2023-04-01T03:00:44;19.93;;;16.50;;
6547;SDS011;3307;52.416;16.862;2023-04-01T03:03:10;19.20;;;16.60;;
6547;SDS011;3307;52.416;16.862;2023-04-01T03:05:35;22.60;;;17.50;;
6547;SDS011;3307;52.416;16.862;2023-04-01T03:08:01;22.67;;;18.60;;
6547;SDS011;3307;52.416;16.862;2023-04-01T03:10:27;24.48;;;18.83;;
6547;SDS011;3307;52.416;16.862;2023-04-01T03:12:53;21.27;;;16.37;;
6547;SDS011;3307;52.416;16.862;2023-04-01T03:15:18;13.03;;;11.50;;
6547;SDS011;3307;52.416;16.862;2023-04-01T03:17:43;14.67;;;11.10;;
6547;SDS011;3307;52.416;16.862;2023-04-01T03:20:09;12.60;;;10.67;;
6547;SDS011;3307;52.416;16.862;2023-04-01T03:22:35;10.85;;;9.75;;
6547;SDS011;3307;52.416;16.862;2023-04-01T03:25:02;11.60;;;10.40;;
6547;SDS011;3307;52.416;16.862;2023-04-01T03:27:28;10.95;;;8.80;;
6547;SDS011;3307;52.416;16.862;2023-04-01T03:29:54;14.00;;;11.63;;
6547;SDS011;3307;52.416;16.862;2023-04-01T03:32:19;9.00;;;7.80;;
6547;SDS011;3307;52.416;16.862;2023-04-01T03:34:44;7.20;;;6.50;;
6547;SDS011;3307;52.416;16.862;2023-04-01T03:37:10;7.30;;;6.50;;
6547;SDS011;3307;52.416;16.862;2023-04-01T03:39:35;8.00;;;6.90;;
6547;SDS011;3307;52.416;16.862;2023-04-01T03:42:01;9.07;;;7.73;;
6547;SDS011;3307;52.416;16.862;2023-04-01T03:44:30;8.27;;;7.07;;
6547;SDS011;3307;52.416;16.862;2023-04-01T03:46:56;6.68;;;6.05;;
6547;SDS011;3307;52.416;16.862;2023-04-01T03:49:21;8.53;;;6.53;;
6547;SDS011;3307;52.416;16.862;2023-04-01T03:51:47;7.93;;;6.57;;
6547;SDS011;3307;52.416;16.862;2023-04-01T03:54:12;6.73;;;6.00;;
6547;SDS011;3307;52.416;16.862;2023-04-01T03:56:38;7.13;;;6.43;;
6547;SDS011;3307;52.416;16.862;2023-04-01T03:59:04;8.70;;;7.07;;
6547;SDS011;3307;52.416;16.862;2023-04-01T04:01:31;8.32;;;6.50;;
6547;SDS011;3307;52.416;16.862;2023-04-01T04:03:57;9.20;;;7.80;;
6547;SDS011;3307;52.416;16.862;2023-04-01T04:06:23;9.17;;;8.00;;
6547;SDS011;3307;52.416;16.862;2023-04-01T04:08:49;12.23;;;9.23;;
6547;SDS011;3307;52.416;16.862;2023-04-01T04:11:15;10.10;;;8.37;;
6547;SDS011;3307;52.416;16.862;2023-04-01T04:13:41;10.98;;;9.38;;
6547;SDS011;3307;52.416;16.862;2023-04-01T04:16:07;10.93;;;9.68;;
6547;SDS011;3307;52.416;16.862;2023-04-01T04:18:34;10.27;;;9.18;;
6547;SDS011;3307;52.416;16.862;2023-04-01T04:21:00;10.17;;;9.17;;
6547;SDS011;3307;52.416;16.862;2023-04-01T04:23:26;11.47;;;9.43;;
6547;SDS011;3307;52.416;16.862;2023-04-01T04:26:05;13.80;;;10.53;;
6547;SDS011;3307;52.416;16.862;2023-04-01T04:28:32;14.93;;;11.25;;
6547;SDS011;3307;52.416;16.862;2023-04-01T04:30:58;12.43;;;10.65;;
6547;SDS011;3307;52.416;16.862;2023-04-01T04:33:23;13.27;;;10.47;;
6547;SDS011;3307;52.416;16.862;2023-04-01T04:35:49;10.93;;;9.55;;
6547;SDS011;3307;52.416;16.862;2023-04-01T04:38:15;11.70;;;10.50;;
6547;SDS011;3307;52.416;16.862;2023-04-01T04:40:41;11.63;;;9.63;;
6547;SDS011;3307;52.416;16.862;2023-04-01T04:43:10;10.40;;;9.40;;
6547;SDS011;3307;52.416;16.862;2023-04-01T04:45:36;12.77;;;10.32;;
6547;SDS011;3307;52.416;16.862;2023-04-01T04:48:02;14.27;;;11.90;;
6547;SDS011;3307;52.416;16.862;2023-04-01T04:50:28;12.50;;;11.20;;
6547;SDS011;3307;52.416;16.862;2023-04-01T04:52:53;14.60;;;12.57;;
6547;SDS011;3307;52.416;16.862;2023-04-01T04:55:19;14.17;;;12.03;;
6547;SDS011;3307;52.416;16.862;2023-04-01T04:57:44;10.50;;;9.40;;
6547;SDS011;3307;52.416;16.862;2023-04-01T05:00:10;13.10;;;10.90;;
6547;SDS011;3307;52.416;16.862;2023-04-01T05:02:36;13.65;;;11.23;;
6547;SDS011;3307;52.416;16.862;2023-04-01T05:05:02;12.83;;;10.73;;
6547;SDS011;3307;52.416;16.862;2023-04-01T05:07:27;12.53;;;11.23;;
6547;SDS011;3307;52.416;16.862;2023-04-01T05:09:53;12.60;;;11.20;;
6547;SDS011;3307;52.416;16.862;2023-04-01T05:12:18;12.70;;;10.50;;
6547;SDS011;3307;52.416;16.862;2023-04-01T05:14:44;10.47;;;9.37;;
6547;SDS011;3307;52.416;16.862;2023-04-01T05:17:12;12.90;;;11.57;;
6547;SDS011;3307;52.416;16.862;2023-04-01T05:19:38;11.82;;;10.27;;
6547;SDS011;3307;52.416;16.862;2023-04-01T05:22:04;12.03;;;9.43;;
6547;SDS011;3307;52.416;16.862;2023-04-01T05:24:30;12.63;;;9.60;;
6547;SDS011;3307;52.416;16.862;2023-04-01T05:26:56;12.40;;;10.80;;
6547;SDS011;3307;52.416;16.862;2023-04-01T05:29:22;12.23;;;10.35;;
6547;SDS011;3307;52.416;16.862;2023-04-01T05:31:48;11.20;;;9.95;;
6547;SDS011;3307;52.416;16.862;2023-04-01T05:34:14;13.03;;;11.30;;
6547;SDS011;3307;52.416;16.862;2023-04-01T05:36:40;12.37;;;9.43;;
6547;SDS011;3307;52.416;16.862;2023-04-01T05:39:06;10.77;;;9.30;;
6547;SDS011;3307;52.416;16.862;2023-04-01T05:41:34;13.43;;;10.90;;
6547;SDS011;3307;52.416;16.862;2023-04-01T05:44:00;11.27;;;10.00;;
6547;SDS011;3307;52.416;16.862;2023-04-01T05:46:26;11.63;;;10.43;;
6547;SDS011;3307;52.416;16.862;2023-04-01T05:48:51;10.63;;;9.43;;
6547;SDS011;3307;52.416;16.862;2023-04-01T05:51:17;11.03;;;9.93;;
6547;SDS011;3307;52.416;16.862;2023-04-01T05:53:43;11.27;;;10.17;;
6547;SDS011;3307;52.416;16.862;2023-04-01T05:56:08;10.43;;;9.10;;
6547;SDS011;3307;52.416;16.862;2023-04-01T05:58:37;13.05;;;9.82;;
6547;SDS011;3307;52.416;16.862;2023-04-01T06:01:03;12.25;;;10.32;;
6547;SDS011;3307;52.416;16.862;2023-04-01T06:03:30;9.85;;;8.85;;
6547;SDS011;3307;52.416;16.862;2023-04-01T06:05:56;11.20;;;10.03;;
6547;SDS011;3307;52.416;16.862;2023-04-01T06:08:21;10.67;;;9.57;;
6547;SDS011;3307;52.416;16.862;2023-04-01T06:13:53;10.30;;;9.30;;
6547;SDS011;3307;52.416;16.862;2023-04-01T06:19:22;10.45;;;9.35;;
6547;SDS011;3307;52.416;16.862;2023-04-01T06:24:47;10.55;;;8.23;;
6547;SDS011;3307;52.416;16.862;2023-04-01T06:30:44;9.75;;;8.73;;
6547;SDS011;3307;52.416;16.862;2023-04-01T06:36:10;11.43;;;9.40;;
6547;SDS011;3307;52.416;16.862;2023-04-01T06:38:46;13.15;;;10.30;;
6547;SDS011;3307;52.416;16.862;2023-04-01T06:51:39;9.48;;;8.48;;
6547;SDS011;3307;52.416;16.862;2023-04-01T06:57:00;9.80;;;8.48;;
6547;SDS011;3307;52.416;16.862;2023-04-01T06:59:32;9.90;;;8.90;;
6547;SDS011;3307;52.416;16.862;2023-04-01T07:02:02;10.65;;;9.38;;
6547;SDS011;3307;52.416;16.862;2023-04-01T07:04:36;9.40;;;8.40;;
6547;SDS011;3307;52.416;16.862;2023-04-01T07:09:55;10.27;;;9.20;;
6547;SDS011;3307;52.416;16.862;2023-04-01T07:17:57;11.63;;;10.02;;
6547;SDS011;3307;52.416;16.862;2023-04-01T07:20:31;12.07;;;10.85;;
6547;SDS011;3307;52.416;16.862;2023-04-01T07:23:02;15.10;;;12.45;;
6547;SDS011;3307;52.416;16.862;2023-04-01T07:25:34;13.13;;;11.38;;
6547;SDS011;3307;52.416;16.862;2023-04-01T07:28:06;12.18;;;10.90;;
6547;SDS011;3307;52.416;16.862;2023-04-01T07:31:04;13.77;;;11.77;;
6547;SDS011;3307;52.416;16.862;2023-04-01T07:38:49;11.83;;;9.70;;
6547;SDS011;3307;52.416;16.862;2023-04-01T07:42:01;10.38;;;9.27;;
6547;SDS011;3307;52.416;16.862;2023-04-01T07:47:00;9.98;;;9.07;;
6547;SDS011;3307;52.416;16.862;2023-04-01T07:52:23;9.88;;;8.88;;
6547;SDS011;3307;52.416;16.862;2023-04-01T08:00:24;8.95;;;8.02;;
6547;SDS011;3307;52.416;16.862;2023-04-01T08:05:28;8.57;;;7.68;;
6547;SDS011;3307;52.416;16.862;2023-04-01T08:10:57;9.00;;;7.03;;
6547;SDS011;3307;52.416;16.862;2023-04-01T08:22:23;7.13;;;6.43;;
6547;SDS011;3307;52.416;16.862;2023-04-01T08:24:52;5.97;;;5.32;;
6547;SDS011;3307;52.416;16.862;2023-04-01T08:27:43;6.70;;;6.03;;
6547;SDS011;3307;52.416;16.862;2023-04-01T08:30:21;6.70;;;6.10;;
6547;SDS011;3307;52.416;16.862;2023-04-01T08:33:49;7.35;;;6.65;;
6547;SDS011;3307;52.416;16.862;2023-04-01T08:38:38;6.72;;;6.15;;
6547;SDS011;3307;52.416;16.862;2023-04-01T09:02:55;9.02;;;8.13;;
6547;SDS011;3307;52.416;16.862;2023-04-01T09:16:05;12.10;;;10.30;;
6547;SDS011;3307;52.416;16.862;2023-04-01T09:24:11;14.27;;;11.48;;
6547;SDS011;3307;52.416;16.862;2023-04-01T09:35:39;11.20;;;9.90;;
6547;SDS011;3307;52.416;16.862;2023-04-01T09:46:47;13.98;;;12.05;;
6547;SDS011;3307;52.416;16.862;2023-04-01T10:08:50;21.98;;;16.85;;
6547;SDS011;3307;52.416;16.862;2023-04-01T10:26:18;16.60;;;13.30;;
6547;SDS011;3307;52.416;16.862;2023-04-01T10:54:20;20.25;;;15.95;;
6547;SDS011;3307;52.416;16.862;2023-04-01T10:59:53;19.73;;;15.60;;
6547;SDS011;3307;52.416;16.862;2023-04-01T11:16:33;23.17;;;16.92;;
6547;SDS011;3307;52.416;16.862;2023-04-01T11:19:50;26.30;;;19.80;;
6547;SDS011;3307;52.416;16.862;2023-04-01T11:33:33;13.40;;;11.93;;
6547;SDS011;3307;52.416;16.862;2023-04-01T11:41:41;15.15;;;12.63;;
6547;SDS011;3307;52.416;16.862;2023-04-01T11:44:27;16.10;;;12.65;;
6547;SDS011;3307;52.416;16.862;2023-04-01T11:55:14;14.68;;;12.38;;
6547;SDS011;3307;52.416;16.862;2023-04-01T12:09:13;21.83;;;18.50;;
6547;SDS011;3307;52.416;16.862;2023-04-01T12:12:18;21.25;;;19.05;;
6547;SDS011;3307;52.416;16.862;2023-04-01T12:21:02;21.92;;;17.60;;
6547;SDS011;3307;52.416;16.862;2023-04-01T12:28:48;18.58;;;15.70;;
6547;SDS011;3307;52.416;16.862;2023-04-01T12:33:52;20.33;;;17.30;;
6547;SDS011;3307;52.416;16.862;2023-04-01T12:36:35;19.02;;;16.95;;
6547;SDS011;3307;52.416;16.862;2023-04-01T13:03:05;13.68;;;12.02;;
6547;SDS011;3307;52.416;16.862;2023-04-01T13:05:56;13.80;;;11.88;;
6547;SDS011;3307;52.416;16.862;2023-04-01T13:16:55;13.27;;;12.18;;
6547;SDS011;3307;52.416;16.862;2023-04-01T13:22:15;10.18;;;9.27;;
6547;SDS011;3307;52.416;16.862;2023-04-01T13:25:13;9.85;;;8.88;;
6547;SDS011;3307;52.416;16.862;2023-04-01T13:27:43;11.50;;;9.00;;
6547;SDS011;3307;52.416;16.862;2023-04-01T13:44:39;9.93;;;9.13;;
6547;SDS011;3307;52.416;16.862;2023-04-01T13:47:08;10.30;;;9.30;;
6547;SDS011;3307;52.416;16.862;2023-04-01T13:58:07;10.02;;;9.23;;
6547;SDS011;3307;52.416;16.862;2023-04-01T14:19:31;9.10;;;8.20;;
6547;SDS011;3307;52.416;16.862;2023-04-01T14:22:33;11.30;;;10.25;;
6547;SDS011;3307;52.416;16.862;2023-04-01T14:47:08;8.73;;;7.95;;
6547;SDS011;3307;52.416;16.862;2023-04-01T14:50:08;7.75;;;7.18;;
6547;SDS011;3307;52.416;16.862;2023-04-01T14:52:38;8.70;;;7.90;;
6547;SDS011;3307;52.416;16.862;2023-04-01T14:55:25;9.32;;;8.52;;
6547;SDS011;3307;52.416;16.862;2023-04-01T14:58:04;9.68;;;8.88;;
6547;SDS011;3307;52.416;16.862;2023-04-01T15:04:02;10.45;;;9.45;;
6547;SDS011;3307;52.416;16.862;2023-04-01T15:14:18;9.73;;;8.70;;
6547;SDS011;3307;52.416;16.862;2023-04-01T15:24:47;11.68;;;10.68;;
6547;SDS011;3307;52.416;16.862;2023-04-01T15:37:59;11.20;;;10.10;;
6547;SDS011;3307;52.416;16.862;2023-04-01T15:40:49;11.18;;;10.18;;
6547;SDS011;3307;52.416;16.862;2023-04-01T15:43:44;10.95;;;10.00;;
6547;SDS011;3307;52.416;16.862;2023-04-01T15:51:37;9.25;;;8.50;;
6547;SDS011;3307;52.416;16.862;2023-04-01T16:02:29;8.25;;;7.47;;
6547;SDS011;3307;52.416;16.862;2023-04-01T16:24:17;9.15;;;8.25;;
6547;SDS011;3307;52.416;16.862;2023-04-01T16:32:22;11.55;;;8.88;;
6547;SDS011;3307;52.416;16.862;2023-04-01T16:40:43;9.80;;;9.10;;
6547;SDS011;3307;52.416;16.862;2023-04-01T16:43:46;9.35;;;8.55;;
6547;SDS011;3307;52.416;16.862;2023-04-01T16:59:58;8.80;;;7.97;;
6547;SDS011;3307;52.416;16.862;2023-04-01T17:02:47;9.25;;;8.35;;
6547;SDS011;3307;52.416;16.862;2023-04-01T17:05:16;8.88;;;8.10;;
6547;SDS011;3307;52.416;16.862;2023-04-01T17:10:55;11.70;;;10.63;;
6547;SDS011;3307;52.416;16.862;2023-04-01T17:16:37;11.90;;;10.70;;
6547;SDS011;3307;52.416;16.862;2023-04-01T17:19:26;15.23;;;13.82;;
6547;SDS011;3307;52.416;16.862;2023-04-01T17:30:11;10.13;;;9.32;;
6547;SDS011;3307;52.416;16.862;2023-04-01T17:35:42;10.13;;;9.13;;
6547;SDS011;3307;52.416;16.862;2023-04-01T17:55:15;13.07;;;11.88;;
6547;SDS011;3307;52.416;16.862;2023-04-01T17:57:54;12.23;;;10.90;;
6547;SDS011;3307;52.416;16.862;2023-04-01T18:00:39;11.35;;;10.23;;
6547;SDS011;3307;52.416;16.862;2023-04-01T18:08:40;10.13;;;9.23;;
6547;SDS011;3307;52.416;16.862;2023-04-01T18:11:27;10.80;;;9.02;;
6547;SDS011;3307;52.416;16.862;2023-04-01T18:20:24;7.53;;;7.00;;
6547;SDS011;3307;52.416;16.862;2023-04-01T18:23:02;9.20;;;8.30;;
6547;SDS011;3307;52.416;16.862;2023-04-01T18:25:38;8.82;;;7.93;;
6547;SDS011;3307;52.416;16.862;2023-04-01T18:39:41;9.35;;;8.45;;
6547;SDS011;3307;52.416;16.862;2023-04-01T18:44:53;8.80;;;8.00;;
6547;SDS011;3307;52.416;16.862;2023-04-01T18:55:49;13.48;;;12.07;;
6547;SDS011;3307;52.416;16.862;2023-04-01T19:00:59;7.90;;;7.18;;
6547;SDS011;3307;52.416;16.862;2023-04-01T19:06:41;7.95;;;7.25;;
6547;SDS011;3307;52.416;16.862;2023-04-01T19:09:29;7.90;;;7.20;;
6547;SDS011;3307;52.416;16.862;2023-04-01T19:12:00;8.35;;;7.70;;
6547;SDS011;3307;52.416;16.862;2023-04-01T19:20:29;9.07;;;8.27;;
6547;SDS011;3307;52.416;16.862;2023-04-01T19:23:09;8.23;;;7.43;;
6547;SDS011;3307;52.416;16.862;2023-04-01T19:26:01;9.55;;;7.85;;
6547;SDS011;3307;52.416;16.862;2023-04-01T19:34:18;7.35;;;6.75;;
6547;SDS011;3307;52.416;16.862;2023-04-01T19:36:59;8.23;;;7.55;;
6547;SDS011;3307;52.416;16.862;2023-04-01T19:53:20;8.07;;;7.28;;
6547;SDS011;3307;52.416;16.862;2023-04-01T19:55:59;8.35;;;7.47;;
6547;SDS011;3307;52.416;16.862;2023-04-01T20:01:03;8.63;;;7.78;;
6547;SDS011;3307;52.416;16.862;2023-04-01T20:11:41;7.82;;;7.13;;
6547;SDS011;3307;52.416;16.862;2023-04-01T20:16:50;9.23;;;8.32;;
6547;SDS011;3307;52.416;16.862;2023-04-01T20:19:25;9.23;;;8.35;;
6547;SDS011;3307;52.416;16.862;2023-04-01T20:21:52;8.52;;;7.82;;
6547;SDS011;3307;52.416;16.862;2023-04-01T20:24:28;8.05;;;7.45;;
6547;SDS011;3307;52.416;16.862;2023-04-01T20:27:10;8.38;;;7.65;;
6547;SDS011;3307;52.416;16.862;2023-04-01T20:42:46;6.97;;;6.38;;
6547;SDS011;3307;52.416;16.862;2023-04-01T20:53:43;7.15;;;6.55;;
6547;SDS011;3307;52.416;16.862;2023-04-01T21:01:29;6.43;;;5.93;;
6547;SDS011;3307;52.416;16.862;2023-04-01T21:09:55;7.32;;;6.72;;
6547;SDS011;3307;52.416;16.862;2023-04-01T21:23:13;8.07;;;7.30;;
6547;SDS011;3307;52.416;16.862;2023-04-01T21:31:21;7.47;;;6.20;;
6547;SDS011;3307;52.416;16.862;2023-04-01T21:50:00;11.57;;;9.40;;
6547;SDS011;3307;52.416;16.862;2023-04-01T22:01:08;10.25;;;9.25;;
6547;SDS011;3307;52.416;16.862;2023-04-01T22:11:38;9.00;;;8.20;;
6547;SDS011;3307;52.416;16.862;2023-04-01T22:32:47;9.85;;;8.82;;
6547;SDS011;3307;52.416;16.862;2023-04-01T22:40:34;10.95;;;9.02;;
6547;SDS011;3307;52.416;16.862;2023-04-01T22:43:10;10.27;;;8.70;;
6547;SDS011;3307;52.416;16.862;2023-04-01T22:45:59;9.88;;;8.73;;
6547;SDS011;3307;52.416;16.862;2023-04-01T22:51:12;9.25;;;8.30;;
6547;SDS011;3307;52.416;16.862;2023-04-01T22:56:31;8.63;;;7.75;;
6547;SDS011;3307;52.416;16.862;2023-04-01T22:59:04;8.00;;;7.20;;
6547;SDS011;3307;52.416;16.862;2023-04-01T23:01:34;7.60;;;6.75;;
6547;SDS011;3307;52.416;16.862;2023-04-01T23:04:04;10.38;;;7.05;;
6547;SDS011;3307;52.416;16.862;2023-04-01T23:06:34;9.27;;;6.78;;
6547;SDS011;3307;52.416;16.862;2023-04-01T23:09:45;7.18;;;6.47;;
6547;SDS011;3307;52.416;16.862;2023-04-01T23:12:09;7.18;;;6.47;;
6547;SDS011;3307;52.416;16.862;2023-04-01T23:14:38;7.03;;;6.38;;
6547;SDS011;3307;52.416;16.862;2023-04-01T23:25:44;7.22;;;6.53;;
6547;SDS011;3307;52.416;16.862;2023-04-01T23:33:19;7.80;;;6.27;;
6547;SDS011;3307;52.416;16.862;2023-04-01T23:35:49;6.80;;;6.10;;
6547;SDS011;3307;52.416;16.862;2023-04-01T23:38:24;7.90;;;6.50;;
6547;SDS011;3307;52.416;16.862;2023-04-01T23:40:51;7.03;;;6.28;;
6547;SDS011;3307;52.416;16.862;2023-04-01T23:43:22;7.75;;;6.88;;
6547;SDS011;3307;52.416;16.862;2023-04-01T23:45:51;7.88;;;6.82;;
6547;SDS011;3307;52.416;16.862;2023-04-01T23:48:17;7.28;;;6.28;;
6547;SDS011;3307;52.416;16.862;2023-04-01T23:50:44;6.60;;;6.00;;
6547;SDS011;3307;52.416;16.862;2023-04-01T23:53:18;8.17;;;6.10;;
6547;SDS011;3307;52.416;16.862;2023-04-01T23:55:45;9.57;;;7.18;;
6547;SDS011;3307;52.416;16.862;2023-04-01T23:58:13;8.20;;;6.13;;
